Home > Products > Valid Products > TAF

000
FTUS43 KLBF 010200 AAA
TAFVTN
TAF AMD
KVTN 010215Z 0102/0124 VRB03KT P6SM BKN100
     FM010700 VRB05KT P6SM OVC100
     FM011400 32006KT P6SM OVC100=



000
FTUS43 KLBF 302300
TAFLBF
TAF
KLBF 302324Z 0100/0124 22008KT P6SM SCT090 BKN150
     FM010100 VRB03KT P6SM SCT090 SCT150
     FM011500 34006KT P6SM OVC120=



000
FTUS43 KLBF 302300
TAFVTN
TAF
KVTN 302324Z 0100/0124 26018G26KT P6SM SCT100 SCT150
     FM010100 26012KT P6SM BKN100
     FM010700 VRB05KT P6SM OVC100
     FM011400 32006KT P6SM OVC100=



000
FTUS43 KLBF 301700
TAFLBF
TAF
KLBF 301722Z 3018/0118 21014G21KT P6SM BKN250
     FM010100 18005KT P6SM SCT100 SCT200
     FM010900 30004KT P6SM SCT100 SCT200=



000
FTUS43 KLBF 301700
TAFVTN
TAF
KVTN 301722Z 3018/0118 22027G37KT P6SM SCT050 BKN200
     FM010000 24014KT P6SM SCT100
     FM010300 20006KT P6SM SCT100
     FM011200 32006KT P6SM SCT100=



000
FTUS43 KLBF 301100
TAFVTN
TAF
KVTN 301133Z 3012/0112 17012G24KT P6SM OVC030
     FM301500 20025G32KT P6SM BKN070
     FM301800 23029G36KT P6SM VCSH BKN100
     FM010000 24014KT P6SM OVC100
     FM010400 24007KT P6SM OVC100=



000
FTUS43 KLBF 301100
TAFLBF
TAF
KLBF 301133Z 3012/0112 23009KT P6SM BKN050
     FM301500 23014G25KT P6SM SCT250
     FM302200 23010G20KT P6SM SCT250
     FM010100 19006KT P6SM BKN200
     FM010700 VRB06KT P6SM BKN120=



000
FTUS43 KLBF 300500 CCA
TAFLBF
TAF COR
KLBF 300545Z 3006/0106 15015KT P6SM SCT030 BKN060
     FM301000 17017G26KT P6SM BKN060
     FM301200 23009KT P6SM SCT030 BKN060
     FM301500 22009KT P6SM SCT250
     FM301800 24014KT P6SM SCT250
     FM010000 23005KT P6SM SCT120=



000
FTUS43 KLBF 300500
TAFLBF
TAF
KLBF 300520Z 3006/0106 15017KT P6SM -SHRA SCT030 OVC060
     FM300700 18015KT P6SM SCT030 BKN060
     FM301200 23009KT P6SM SCT030 BKN060
     FM301500 22009KT P6SM SCT250
     FM301800 24014KT P6SM SCT250
     FM010000 23005KT P6SM SCT120=



000
FTUS43 KLBF 300500
TAFVTN
TAF
KVTN 300520Z 3006/0106 11013KT P6SM OVC080
     FM300700 13018KT 4SM TSRA OVC050CB
     FM300800 15015KT P6SM SHRA OVC060
     FM301000 17012G24KT P6SM OVC060
     FM301500 18025G32KT P6SM OVC070
     FM301800 21025G32KT P6SM VCSH OVC050
     FM010000 24014KT P6SM OVC100=



000
FTUS43 KLBF 300400 AAA
TAFLBF
TAF AMD
KLBF 300408Z 3004/3024 13024G30KT P6SM VCTS OVC050CB
      TEMPO 3004/3006 1/2SM TSRA OVC020CB
     FM300600 14024G30KT 2SM TSRA SCT015 OVC040CB
     FM300800 15017G25KT 4SM -RA BR OVC015
     FM301100 19015G21KT P6SM SCT015 BKN100
     FM301200 21011KT P6SM SCT120 BKN150=



000
FTUS43 KLBF 292300
TAFVTN
TAF
KVTN 292335Z 3000/3024 04010KT P6SM -SHRA SCT080 OVC100
     FM300500 12020G28KT 3SM -SHRA BR BKN015
      TEMPO 3009/3012 1 1/2SM -RA BR OVC007
     FM301500 20020G30KT P6SM SCT015 SCT025 BKN040=



000
FTUS43 KLBF 292300
TAFLBF
TAF
KLBF 292335Z 3000/3024 13016G25KT P6SM SCT070 BKN090
     FM300400 13024G30KT P6SM VCTS OVC050CB
     FM300600 14024G30KT 2SM TSRA SCT015 OVC040CB
     FM300800 15017G25KT 4SM -RA BR OVC015
     FM301100 19015G21KT P6SM SCT015 BKN100
     FM301200 21011KT P6SM SCT120 BKN150=



000
FTUS43 KLBF 292200 AAC
TAFVTN
TAF AMD
KVTN 292208Z 2922/3018 04010KT P6SM -RA SCT060 OVC080
     FM300500 12020G28KT 3SM -SHRA BR BKN015
     FM300900 16020G28KT P6SM OVC015
     FM301500 20020G30KT P6SM SCT020 BKN040=



000
FTUS43 KLBF 291900 AAB
TAFVTN
TAF AMD
KVTN 291907Z 2919/3018 09011KT P6SM SCT015 BKN100
     FM292000 12015G22KT P6SM VCSH SCT025 BKN050
     FM292200 12015G25KT P6SM -RA BKN050
     FM300500 12020G28KT 3SM -SHRA BR BKN015
     FM300900 16020G28KT P6SM OVC015
     FM301500 20020G30KT P6SM SCT020 BKN040=



000
FTUS43 KLBF 291800 AAA
TAFVTN
TAF AMD
KVTN 291824Z 2918/3018 09011KT P6SM OVC009
     FM292000 12015G22KT P6SM VCSH OVC015
     FM292200 12015G25KT P6SM -RA SCT015 OVC025
     FM300500 12020G28KT 3SM -SHRA BR BKN015
     FM300900 15020G28KT P6SM OVC015
     FM301200 18020G28KT P6SM OVC015
     FM301500 20020G30KT P6SM SCT020 BKN040=



000
FTUS43 KLBF 291700 RRA
TAFLBF
TAF
KLBF 291747Z 2918/3018 16015G25KT P6SM BKN070
     FM300100 15018G25KT P6SM BKN050
     FM300300 14018G25KT P6SM VCTS OVC050CB
     FM300400 14022G29KT 3SM -TSRA OVC050CB
     FM300600 14022G29KT 2SM TSRA OVC040CB
     FM300800 15017G25KT 6SM -RA OVC040
     FM300900 18015G22KT P6SM OVC100=



000
FTUS43 KLBF 291700 RRA
TAFVTN
TAF
KVTN 291747Z 2918/3018 09011KT P6SM OVC005
     FM292000 12015G22KT P6SM VCSH OVC007
     FM292200 12015G25KT P6SM -RA SCT015 OVC025
     FM300500 12020G28KT 3SM -SHRA BR BKN015
     FM300900 15020G28KT P6SM OVC015
     FM301200 18020G28KT P6SM OVC015
     FM301500 20020G30KT P6SM SCT020 BKN040=



000
FTUS43 KLBF 291600 AAB
TAFVTN
TAF AMD
KVTN 291605Z 2916/3012 08008KT 1SM BR OVC003
      TEMPO 2916/2917 2SM BR OVC005
     FM291700 10010KT 4SM BR OVC007
     FM291800 12010G17KT P6SM OVC015
     FM292000 12015G22KT P6SM VCSH SCT025 OVC050
     FM300300 12020G28KT 3SM -SHRA BR BKN015
     FM300900 15020G28KT P6SM OVC015=



000
FTUS43 KLBF 291600 AAA
TAFLBF
TAF AMD
KLBF 291602Z 2916/3012 12010KT P6SM BKN080
     FM291700 13013G19KT P6SM BKN070
     FM300100 13018G25KT P6SM BKN050
     FM300500 14022G29KT 3SM -TSRA OVC050CB
     FM300900 15015G22KT P6SM OVC100=



000
FTUS43 KLBF 291300 AAA
TAFVTN
TAF AMD
KVTN 291358Z 2914/3012 05005KT 1/4SM FG OVC002
     FM291600 08008KT 2SM BR OVC003
      TEMPO 2916/2917 5SM BR OVC007
     FM291700 12010G17KT P6SM OVC025
     FM292000 12015G22KT P6SM VCSH SCT025 OVC050
     FM300300 12020G28KT 3SM -SHRA BR BKN015
     FM300900 15020G28KT P6SM OVC015=



000
FTUS43 KLBF 291100
TAFVTN
TAF
KVTN 291138Z 2912/3012 05005KT 3/4SM BR OVC003
      TEMPO 2912/2914 1/4SM FG VV001
     FM291500 08008KT 2SM BR OVC003
      TEMPO 2916/2917 5SM BR OVC007
     FM291700 12010G17KT P6SM OVC025
     FM292000 12015G22KT P6SM VCSH SCT025 OVC050
     FM300300 12020G28KT 3SM -SHRA BR BKN015
     FM300900 15020G28KT P6SM OVC015=



000
FTUS43 KLBF 291100
TAFLBF
TAF
KLBF 291138Z 2912/3012 10007KT P6SM SCT070
     FM291500 14013G19KT P6SM BKN070
     FM300100 13018G25KT P6SM BKN050
     FM300500 14022G29KT 3SM -TSRA OVC050CB
     FM300900 15015G22KT P6SM OVC100=



000
FTUS43 KLBF 290900 AAA
TAFVTN
TAF AMD
KVTN 290944Z 2910/3006 05005KT 2SM BR OVC003
      TEMPO 2910/2913 3/4SM BR OVC002
     FM291600 13012G18KT P6SM -SHRA SCT015 OVC050=



000
FTUS43 KLBF 290500
TAFLBF
TAF
KLBF 290533Z 2906/3006 10007KT P6SM SCT070
     FM291500 14013G19KT P6SM OVC070=



000
FTUS43 KLBF 290500
TAFVTN
TAF
KVTN 290533Z 2906/3006 36006KT P6SM SCT060
     FM290700 04006KT P6SM SCT007 OVC015
      TEMPO 2907/2909 4SM BR BKN006
     FM290900 05005KT 5SM BR OVC006
     FM291600 13012G18KT P6SM -SHRA SCT015 OVC050=



000
FTUS43 KLBF 282300
TAFVTN
TAF
KVTN 282320Z 2900/2924 01010KT P6SM SCT070 BKN090
     FM290200 03009KT P6SM VCSH BKN060
     FM291200 07006KT P6SM BKN060
     FM291700 13012G18KT P6SM BKN070=



000
FTUS43 KLBF 282300
TAFLBF
TAF
KLBF 282320Z 2900/2924 13007KT P6SM SCT070
     FM291500 14012G18KT P6SM BKN120=



000
FTUS43 KLBF 281800 AAA
TAFLBF
TAF AMD
KLBF 281857Z 2819/2918 16012G25KT P6SM SCT070
     FM290000 13006KT P6SM SCT070
     FM291400 15010KT P6SM BKN100
     FM291700 16013G22KT P6SM BKN070=



000
FTUS43 KLBF 281700
TAFVTN
TAF
KVTN 281720Z 2818/2918 VRB04KT P6SM SCT080
     FM282000 16009KT P6SM BKN070
     FM290100 11009KT P6SM BKN070
     FM290600 06007KT P6SM VCSH BKN070
     FM291200 10006KT P6SM BKN070
     FM291700 13012G18KT P6SM BKN070=



000
FTUS43 KLBF 281700
TAFLBF
TAF
KLBF 281720Z 2818/2918 17011KT P6SM SKC
     FM282000 16012G20KT P6SM SKC
     FM290000 13006KT P6SM SCT080
     FM291400 15010KT P6SM BKN100
     FM291700 16013G22KT P6SM BKN070=



000
FTUS43 KLBF 281100
TAFLBF
TAF
KLBF 281139Z 2812/2912 11008KT P6SM SKC
      TEMPO 2812/2814 4SM BR
     FM281600 14010G18KT P6SM SKC
     FM290000 13006KT P6SM SCT080 BKN250
     FM291000 13005KT P6SM BKN080=



000
FTUS43 KLBF 281100
TAFVTN
TAF
KVTN 281139Z 2812/2912 16006KT P6SM SCT080
     FM281800 16012KT P6SM BKN080
     FM290100 11009KT P6SM BKN080
     FM290600 10007KT P6SM -SHRA BKN050
     FM290900 VRB06KT P6SM BKN080=



000
FTUS43 KLBF 280500
TAFVTN
TAF
KVTN 280520Z 2806/2906 16010KT P6SM SKC
     FM281200 16006KT P6SM SCT080
     FM281800 16011G17KT P6SM SCT080
     FM290100 14009KT P6SM BKN080=



000
FTUS43 KLBF 280500
TAFLBF
TAF
KLBF 280520Z 2806/2906 11008KT P6SM SKC
      TEMPO 2812/2814 4SM BR
     FM281600 14010G18KT P6SM SKC
     FM290000 13006KT P6SM FEW250=



    US Dept of Commerce
    National Oceanic and Atmospheric Administration
    National Weather Service
    1325 East West Highway
    Silver Spring, MD 20910
    Page Author: NWS Internet Services Team
Disclaimer
Information Quality
Credits
Glossary
Privacy Policy
Freedom of Information Act (FOIA)
About Us
Career Opportunities